sensor_id;sensor_type;location;lat;lon;timestamp;pressure;altitude;pressure_sealevel;temperature;humidity
11198;BME280;5655;48.744;9.162;2023-09-30T00:01:42;97001.19;;;18.80;100.00
11198;BME280;5655;48.744;9.162;2023-09-30T00:04:09;97005.94;;;18.66;100.00
11198;BME280;5655;48.744;9.162;2023-09-30T00:06:34;97002.81;;;18.71;100.00
11198;BME280;5655;48.744;9.162;2023-09-30T00:08:59;97005.03;;;18.83;100.00
11198;BME280;5655;48.744;9.162;2023-09-30T00:11:24;96994.69;;;18.71;100.00
11198;BME280;5655;48.744;9.162;2023-09-30T00:13:50;96995.66;;;18.91;100.00
11198;BME280;5655;48.744;9.162;2023-09-30T00:16:15;96994.38;;;18.62;100.00
11198;BME280;5655;48.744;9.162;2023-09-30T00:18:43;96988.22;;;18.50;100.00
11198;BME280;5655;48.744;9.162;2023-09-30T00:21:08;96992.84;;;18.57;100.00
11198;BME280;5655;48.744;9.162;2023-09-30T00:23:33;96980.97;;;18.37;100.00
11198;BME280;5655;48.744;9.162;2023-09-30T00:25:59;96971.22;;;18.46;100.00
11198;BME280;5655;48.744;9.162;2023-09-30T00:28:25;96972.78;;;18.44;100.00
11198;BME280;5655;48.744;9.162;2023-09-30T00:30:51;96973.50;;;18.51;100.00
11198;BME280;5655;48.744;9.162;2023-09-30T00:33:16;96981.63;;;18.51;100.00
11198;BME280;5655;48.744;9.162;2023-09-30T00:35:42;96987.50;;;18.46;100.00
11198;BME280;5655;48.744;9.162;2023-09-30T00:38:07;96988.34;;;18.33;100.00
11198;BME280;5655;48.744;9.162;2023-09-30T00:40:33;96991.72;;;18.54;100.00
11198;BME280;5655;48.744;9.162;2023-09-30T00:43:00;96986.06;;;18.28;100.00
11198;BME280;5655;48.744;9.162;2023-09-30T00:45:26;96994.97;;;18.28;100.00
11198;BME280;5655;48.744;9.162;2023-09-30T00:47:52;96989.00;;;18.47;100.00
11198;BME280;5655;48.744;9.162;2023-09-30T00:50:19;96992.78;;;18.64;100.00
11198;BME280;5655;48.744;9.162;2023-09-30T00:52:46;97003.63;;;18.68;100.00
11198;BME280;5655;48.744;9.162;2023-09-30T00:55:14;96997.47;;;18.64;100.00
11198;BME280;5655;48.744;9.162;2023-09-30T00:57:40;96991.34;;;18.52;100.00
11198;BME280;5655;48.744;9.162;2023-09-30T01:00:07;96986.63;;;18.64;100.00
11198;BME280;5655;48.744;9.162;2023-09-30T01:02:38;96991.34;;;18.52;100.00
11198;BME280;5655;48.744;9.162;2023-09-30T01:05:03;96988.88;;;18.69;100.00
11198;BME280;5655;48.744;9.162;2023-09-30T01:07:30;96990.56;;;18.48;100.00
11198;BME280;5655;48.744;9.162;2023-09-30T01:09:55;97001.66;;;18.72;100.00
11198;BME280;5655;48.744;9.162;2023-09-30T01:12:21;97003.50;;;18.82;100.00
11198;BME280;5655;48.744;9.162;2023-09-30T01:14:46;96994.69;;;18.71;100.00
11198;BME280;5655;48.744;9.162;2023-09-30T01:17:12;96997.44;;;18.67;100.00
11198;BME280;5655;48.744;9.162;2023-09-30T01:19:39;96995.97;;;18.48;100.00
11198;BME280;5655;48.744;9.162;2023-09-30T01:22:05;96999.03;;;18.57;100.00
11198;BME280;5655;48.744;9.162;2023-09-30T01:24:30;97002.88;;;18.60;100.00
11198;BME280;5655;48.744;9.162;2023-09-30T01:26:56;96988.25;;;18.43;100.00
11198;BME280;5655;48.744;9.162;2023-09-30T01:29:22;96983.22;;;18.45;100.00
11198;BME280;5655;48.744;9.162;2023-09-30T01:31:49;96986.03;;;18.31;100.00
11198;BME280;5655;48.744;9.162;2023-09-30T01:34:16;96986.66;;;18.56;100.00
11198;BME280;5655;48.744;9.162;2023-09-30T01:36:44;96991.91;;;18.78;100.00
11198;BME280;5655;48.744;9.162;2023-09-30T01:39:11;96991.06;;;18.88;100.00
11198;BME280;5655;48.744;9.162;2023-09-30T01:41:37;96991.00;;;18.40;100.00
11198;BME280;5655;48.744;9.162;2023-09-30T01:44:03;96985.91;;;18.52;100.00
11198;BME280;5655;48.744;9.162;2023-09-30T01:46:30;96983.72;;;18.33;100.00
11198;BME280;5655;48.744;9.162;2023-09-30T01:48:55;96987.50;;;18.46;100.00
11198;BME280;5655;48.744;9.162;2023-09-30T01:51:20;96984.47;;;18.30;100.00
11198;BME280;5655;48.744;9.162;2023-09-30T01:53:47;96977.41;;;18.43;100.00
11198;BME280;5655;48.744;9.162;2023-09-30T01:56:12;96981.22;;;18.56;100.00
11198;BME280;5655;48.744;9.162;2023-09-30T01:58:38;96972.00;;;18.43;100.00
11198;BME280;5655;48.744;9.162;2023-09-30T02:01:03;96979.88;;;18.27;100.00
11198;BME280;5655;48.744;9.162;2023-09-30T02:03:29;96970.69;;;18.10;100.00
11198;BME280;5655;48.744;9.162;2023-09-30T02:05:55;96960.66;;;18.04;100.00
11198;BME280;5655;48.744;9.162;2023-09-30T02:08:21;96963.75;;;18.06;100.00
11198;BME280;5655;48.744;9.162;2023-09-30T02:10:47;96966.81;;;18.08;100.00
11198;BME280;5655;48.744;9.162;2023-09-30T02:13:13;96964.16;;;18.01;100.00
11198;BME280;5655;48.744;9.162;2023-09-30T02:15:41;96965.19;;;18.21;100.00
11198;BME280;5655;48.744;9.162;2023-09-30T02:18:06;96979.28;;;17.98;100.00
11198;BME280;5655;48.744;9.162;2023-09-30T02:20:32;96980.88;;;17.89;100.00
11198;BME280;5655;48.744;9.162;2023-09-30T02:22:57;96981.72;;;17.75;100.00
11198;BME280;5655;48.744;9.162;2023-09-30T02:25:24;96989.84;;;17.72;100.00
11198;BME280;5655;48.744;9.162;2023-09-30T02:27:50;96990.19;;;17.81;100.00
11198;BME280;5655;48.744;9.162;2023-09-30T02:30:15;96996.03;;;17.76;100.00
11198;BME280;5655;48.744;9.162;2023-09-30T02:32:41;96990.22;;;17.70;100.00
11198;BME280;5655;48.744;9.162;2023-09-30T02:35:08;96999.81;;;17.89;100.00
11198;BME280;5655;48.744;9.162;2023-09-30T02:37:34;96991.31;;;17.87;100.00
11198;BME280;5655;48.744;9.162;2023-09-30T02:40:03;96991.34;;;17.80;100.00
11198;BME280;5655;48.744;9.162;2023-09-30T02:42:30;96997.97;;;17.75;100.00
11198;BME280;5655;48.744;9.162;2023-09-30T02:44:56;96995.25;;;17.72;100.00
11198;BME280;5655;48.744;9.162;2023-09-30T02:47:21;96999.44;;;17.87;100.00
11198;BME280;5655;48.744;9.162;2023-09-30T02:49:46;97007.22;;;17.81;100.00
11198;BME280;5655;48.744;9.162;2023-09-30T02:52:11;97009.50;;;17.86;100.00
11198;BME280;5655;48.744;9.162;2023-09-30T02:54:38;97012.63;;;17.85;100.00
11198;BME280;5655;48.744;9.162;2023-09-30T02:57:03;97001.78;;;17.85;100.00
11198;BME280;5655;48.744;9.162;2023-09-30T02:59:29;97009.53;;;17.79;100.00
11198;BME280;5655;48.744;9.162;2023-09-30T03:01:54;96998.31;;;17.81;100.00
11198;BME280;5655;48.744;9.162;2023-09-30T03:04:21;97006.47;;;17.70;100.00
11198;BME280;5655;48.744;9.162;2023-09-30T03:06:51;97012.28;;;17.72;100.00
11198;BME280;5655;48.744;9.162;2023-09-30T03:09:16;97017.72;;;17.72;100.00
11198;BME280;5655;48.744;9.162;2023-09-30T03:11:43;97036.66;;;17.65;100.00
11198;BME280;5655;48.744;9.162;2023-09-30T03:14:11;97029.31;;;17.73;100.00
11198;BME280;5655;48.744;9.162;2023-09-30T03:16:37;97026.25;;;17.63;100.00
11198;BME280;5655;48.744;9.162;2023-09-30T03:19:03;97042.09;;;17.68;100.00
11198;BME280;5655;48.744;9.162;2023-09-30T03:21:36;97034.34;;;17.71;100.00
11198;BME280;5655;48.744;9.162;2023-09-30T03:24:04;97035.50;;;17.69;100.00
11198;BME280;5655;48.744;9.162;2023-09-30T03:26:30;97033.97;;;17.68;100.00
11198;BME280;5655;48.744;9.162;2023-09-30T03:28:56;97035.06;;;17.85;100.00
11198;BME280;5655;48.744;9.162;2023-09-30T03:31:21;97038.16;;;17.84;100.00
11198;BME280;5655;48.744;9.162;2023-09-30T03:33:50;97034.72;;;17.69;100.00
11198;BME280;5655;48.744;9.162;2023-09-30T03:36:22;97045.47;;;17.87;100.00
11198;BME280;5655;48.744;9.162;2023-09-30T03:38:53;97049.00;;;17.84;100.00
11198;BME280;5655;48.744;9.162;2023-09-30T03:41:19;97042.00;;;17.90;100.00
11198;BME280;5655;48.744;9.162;2023-09-30T03:43:45;97032.78;;;17.77;100.00
11198;BME280;5655;48.744;9.162;2023-09-30T03:46:10;97028.91;;;17.74;100.00
11198;BME280;5655;48.744;9.162;2023-09-30T03:48:37;97017.72;;;17.65;100.00
11198;BME280;5655;48.744;9.162;2023-09-30T03:51:14;97021.09;;;17.94;100.00
11198;BME280;5655;48.744;9.162;2023-09-30T03:53:43;97004.59;;;17.63;100.00
11198;BME280;5655;48.744;9.162;2023-09-30T03:56:09;96998.78;;;17.61;100.00
11198;BME280;5655;48.744;9.162;2023-09-30T03:58:38;97007.22;;;17.78;100.00
11198;BME280;5655;48.744;9.162;2023-09-30T04:01:03;97013.44;;;17.75;100.00
11198;BME280;5655;48.744;9.162;2023-09-30T04:03:29;97013.06;;;17.69;100.00
11198;BME280;5655;48.744;9.162;2023-09-30T04:05:55;97009.59;;;17.61;100.00
11198;BME280;5655;48.744;9.162;2023-09-30T04:08:20;97007.31;;;17.60;100.00
11198;BME280;5655;48.744;9.162;2023-09-30T04:10:47;97010.38;;;17.62;100.00
11198;BME280;5655;48.744;9.162;2023-09-30T04:13:12;97017.72;;;17.54;100.00
11198;BME280;5655;48.744;9.162;2023-09-30T04:15:38;97011.16;;;17.52;100.00
11198;BME280;5655;48.744;9.162;2023-09-30T04:18:04;97021.91;;;17.80;100.00
11198;BME280;5655;48.744;9.162;2023-09-30T04:20:32;97028.16;;;17.66;100.00
11198;BME280;5655;48.744;9.162;2023-09-30T04:22:58;97009.50;;;17.86;100.00
11198;BME280;5655;48.744;9.162;2023-09-30T04:25:24;97024.63;;;17.84;100.00
11198;BME280;5655;48.744;9.162;2023-09-30T04:27:50;97016.53;;;17.69;100.00
11198;BME280;5655;48.744;9.162;2023-09-30T04:30:16;97022.75;;;17.63;100.00
11198;BME280;5655;48.744;9.162;2023-09-30T04:32:43;97014.19;;;17.75;100.00
11198;BME280;5655;48.744;9.162;2023-09-30T04:35:09;97020.31;;;17.93;100.00
11198;BME280;5655;48.744;9.162;2023-09-30T04:37:35;97030.34;;;18.00;100.00
11198;BME280;5655;48.744;9.162;2023-09-30T04:40:04;97033.38;;;18.16;100.00
11198;BME280;5655;48.744;9.162;2023-09-30T04:42:40;97037.25;;;18.15;100.00
11198;BME280;5655;48.744;9.162;2023-09-30T04:45:06;97044.22;;;18.16;100.00
11198;BME280;5655;48.744;9.162;2023-09-30T04:47:33;97057.38;;;18.10;100.00
11198;BME280;5655;48.744;9.162;2023-09-30T04:49:58;97066.19;;;18.25;100.00
11198;BME280;5655;48.744;9.162;2023-09-30T04:52:24;97063.50;;;18.25;100.00
11198;BME280;5655;48.744;9.162;2023-09-30T04:54:53;97059.59;;;18.30;100.00
11198;BME280;5655;48.744;9.162;2023-09-30T04:57:18;97062.34;;;18.26;100.00
11198;BME280;5655;48.744;9.162;2023-09-30T04:59:44;97061.19;;;18.24;100.00
11198;BME280;5655;48.744;9.162;2023-09-30T05:02:09;97068.16;;;18.28;100.00
11198;BME280;5655;48.744;9.162;2023-09-30T05:04:36;97065.03;;;18.33;100.00
11198;BME280;5655;48.744;9.162;2023-09-30T05:07:02;97069.66;;;18.33;100.00
11198;BME280;5655;48.744;9.162;2023-09-30T05:09:28;97074.25;;;18.39;100.00
11198;BME280;5655;48.744;9.162;2023-09-30T05:11:54;97088.22;;;18.38;100.00
11198;BME280;5655;48.744;9.162;2023-09-30T05:14:20;97086.69;;;18.30;100.00
11198;BME280;5655;48.744;9.162;2023-09-30T05:16:46;97088.22;;;18.34;100.00
11198;BME280;5655;48.744;9.162;2023-09-30T05:19:12;97069.69;;;18.29;100.00
11198;BME280;5655;48.744;9.162;2023-09-30T05:21:37;97081.28;;;18.33;100.00
11198;BME280;5655;48.744;9.162;2023-09-30T05:24:04;97086.72;;;18.26;100.00
11198;BME280;5655;48.744;9.162;2023-09-30T05:26:30;97073.72;;;17.93;100.00
11198;BME280;5655;48.744;9.162;2023-09-30T05:28:55;97067.56;;;17.85;100.00
11198;BME280;5655;48.744;9.162;2023-09-30T05:31:21;97068.34;;;17.86;100.00
11198;BME280;5655;48.744;9.162;2023-09-30T05:33:46;97066.00;;;17.88;100.00
11198;BME280;5655;48.744;9.162;2023-09-30T05:36:11;97061.41;;;17.71;100.00
11198;BME280;5655;48.744;9.162;2023-09-30T05:38:39;97061.38;;;17.78;100.00
11198;BME280;5655;48.744;9.162;2023-09-30T05:41:04;97049.03;;;17.73;100.00
11198;BME280;5655;48.744;9.162;2023-09-30T05:43:31;97057.09;;;17.84;100.00
11198;BME280;5655;48.744;9.162;2023-09-30T05:45:57;97067.63;;;17.67;100.00
11198;BME280;5655;48.744;9.162;2023-09-30T05:48:23;97064.91;;;17.67;100.00
11198;BME280;5655;48.744;9.162;2023-09-30T05:50:49;97065.28;;;17.69;100.00
11198;BME280;5655;48.744;9.162;2023-09-30T05:53:14;97078.44;;;17.67;100.00
11198;BME280;5655;48.744;9.162;2023-09-30T05:55:41;97081.53;;;17.69;100.00
11198;BME280;5655;48.744;9.162;2023-09-30T05:58:13;97080.28;;;17.92;100.00
11198;BME280;5655;48.744;9.162;2023-09-30T06:00:39;97086.91;;;17.84;100.00
11198;BME280;5655;48.744;9.162;2023-09-30T06:03:07;97090.41;;;17.81;100.00
11198;BME280;5655;48.744;9.162;2023-09-30T06:05:33;97093.13;;;17.81;100.00
11198;BME280;5655;48.744;9.162;2023-09-30T06:08:00;97085.31;;;17.97;100.00
11198;BME280;5655;48.744;9.162;2023-09-30T06:10:28;97086.94;;;17.77;100.00
11198;BME280;5655;48.744;9.162;2023-09-30T06:12:53;97088.09;;;17.76;100.00
11198;BME280;5655;48.744;9.162;2023-09-30T06:15:23;97095.03;;;17.80;100.00
11198;BME280;5655;48.744;9.162;2023-09-30T06:17:52;97108.63;;;17.62;100.00
11198;BME280;5655;48.744;9.162;2023-09-30T06:20:18;97114.44;;;17.64;100.00
11198;BME280;5655;48.744;9.162;2023-09-30T06:22:44;97114.78;;;17.74;100.00
11198;BME280;5655;48.744;9.162;2023-09-30T06:25:15;97114.06;;;17.59;100.00
11198;BME280;5655;48.744;9.162;2023-09-30T06:27:46;97120.94;;;17.85;100.00
11198;BME280;5655;48.744;9.162;2023-09-30T06:30:14;97121.72;;;17.85;100.00
11198;BME280;5655;48.744;9.162;2023-09-30T06:32:41;97124.41;;;17.96;100.00
11198;BME280;5655;48.744;9.162;2023-09-30T06:35:07;97134.84;;;17.97;100.00
11198;BME280;5655;48.744;9.162;2023-09-30T06:37:41;97125.59;;;17.88;100.00
11198;BME280;5655;48.744;9.162;2023-09-30T06:40:08;97112.84;;;17.56;100.00
11198;BME280;5655;48.744;9.162;2023-09-30T06:42:35;97120.91;;;17.95;100.00
11198;BME280;5655;48.744;9.162;2023-09-30T06:45:01;97124.78;;;17.98;100.00
11198;BME280;5655;48.744;9.162;2023-09-30T06:47:34;97122.50;;;17.79;100.00
11198;BME280;5655;48.744;9.162;2023-09-30T06:50:04;97142.63;;;17.85;100.00
11198;BME280;5655;48.744;9.162;2023-09-30T06:52:38;97137.94;;;17.96;100.00
11198;BME280;5655;48.744;9.162;2023-09-30T06:55:05;97143.81;;;17.77;100.00
11198;BME280;5655;48.744;9.162;2023-09-30T06:57:32;97148.78;;;17.96;100.00
11198;BME280;5655;48.744;9.162;2023-09-30T06:59:57;97155.00;;;17.82;100.00
11198;BME280;5655;48.744;9.162;2023-09-30T07:02:23;97160.34;;;18.03;100.00
11198;BME280;5655;48.744;9.162;2023-09-30T07:04:49;97149.59;;;17.86;100.00
11198;BME280;5655;48.744;9.162;2023-09-30T07:07:14;97144.53;;;17.91;100.00
11198;BME280;5655;48.744;9.162;2023-09-30T07:09:40;97134.78;;;18.15;100.00
11198;BME280;5655;48.744;9.162;2023-09-30T07:12:05;97134.88;;;17.94;100.00
11198;BME280;5655;48.744;9.162;2023-09-30T07:14:31;97135.63;;;17.94;100.00
11198;BME280;5655;48.744;9.162;2023-09-30T07:16:56;97131.41;;;17.76;100.00
11198;BME280;5655;48.744;9.162;2023-09-30T07:19:22;97132.56;;;17.89;100.00
11198;BME280;5655;48.744;9.162;2023-09-30T07:21:48;97141.81;;;17.95;100.00
11198;BME280;5655;48.744;9.162;2023-09-30T07:24:13;97139.47;;;18.07;100.00
11198;BME280;5655;48.744;9.162;2023-09-30T07:26:39;97145.28;;;17.95;100.00
11198;BME280;5655;48.744;9.162;2023-09-30T07:29:05;97154.22;;;17.89;100.00
11198;BME280;5655;48.744;9.162;2023-09-30T07:31:35;97163.84;;;18.00;100.00
11198;BME280;5655;48.744;9.162;2023-09-30T07:34:00;97167.34;;;18.01;100.00
11198;BME280;5655;48.744;9.162;2023-09-30T07:36:26;97172.38;;;17.92;100.00
11198;BME280;5655;48.744;9.162;2023-09-30T07:38:51;97175.88;;;18.03;100.00
11198;BME280;5655;48.744;9.162;2023-09-30T07:41:18;97166.47;;;18.32;100.00
11198;BME280;5655;48.744;9.162;2023-09-30T07:43:43;97161.84;;;18.29;100.00
11198;BME280;5655;48.744;9.162;2023-09-30T07:46:09;97153.34;;;18.24;100.00
11198;BME280;5655;48.744;9.162;2023-09-30T07:48:34;97164.91;;;18.35;100.00
11198;BME280;5655;48.744;9.162;2023-09-30T07:51:00;97168.38;;;18.35;100.00
11198;BME280;5655;48.744;9.162;2023-09-30T07:53:26;97173.84;;;18.28;100.00
11198;BME280;5655;48.744;9.162;2023-09-30T07:55:52;97184.28;;;18.26;100.00
11198;BME280;5655;48.744;9.162;2023-09-30T07:58:17;97181.97;;;18.21;100.00
11198;BME280;5655;48.744;9.162;2023-09-30T08:00:42;97194.38;;;18.29;100.00
11198;BME280;5655;48.744;9.162;2023-09-30T08:03:08;97196.59;;;18.63;100.00
11198;BME280;5655;48.744;9.162;2023-09-30T08:05:33;97188.84;;;18.57;100.00
11198;BME280;5655;48.744;9.162;2023-09-30T08:07:58;97195.03;;;18.51;100.00
11198;BME280;5655;48.744;9.162;2023-09-30T08:10:24;97190.31;;;18.73;100.00
11198;BME280;5655;48.744;9.162;2023-09-30T08:12:49;97182.25;;;18.51;100.00
11198;BME280;5655;48.744;9.162;2023-09-30T08:15:15;97179.16;;;18.56;100.00
11198;BME280;5655;48.744;9.162;2023-09-30T08:17:41;97181.03;;;18.70;100.00
11198;BME280;5655;48.744;9.162;2023-09-30T08:20:07;97158.63;;;18.59;100.00
11198;BME280;5655;48.744;9.162;2023-09-30T08:22:36;97174.88;;;18.66;100.00
11198;BME280;5655;48.744;9.162;2023-09-30T08:25:02;97175.44;;;18.98;100.00
11198;BME280;5655;48.744;9.162;2023-09-30T08:27:27;97172.41;;;18.93;100.00
11198;BME280;5655;48.744;9.162;2023-09-30T08:29:53;97181.63;;;18.99;100.00
11198;BME280;5655;48.744;9.162;2023-09-30T08:32:18;97170.59;;;19.27;100.00
11198;BME280;5655;48.744;9.162;2023-09-30T08:34:43;97173.00;;;19.18;100.00
11198;BME280;5655;48.744;9.162;2023-09-30T08:37:09;97168.16;;;19.43;100.00
11198;BME280;5655;48.744;9.162;2023-09-30T08:39:38;97192.25;;;19.34;100.00
11198;BME280;5655;48.744;9.162;2023-09-30T08:42:09;97185.25;;;19.40;100.00
11198;BME280;5655;48.744;9.162;2023-09-30T08:44:38;97178.25;;;19.43;100.00
11198;BME280;5655;48.744;9.162;2023-09-30T08:47:06;97164.25;;;19.48;100.00
11198;BME280;5655;48.744;9.162;2023-09-30T08:49:37;97161.88;;;19.54;100.00
11198;BME280;5655;48.744;9.162;2023-09-30T08:52:05;97167.63;;;19.59;100.00
11198;BME280;5655;48.744;9.162;2023-09-30T08:54:31;97178.03;;;19.71;100.00
11198;BME280;5655;48.744;9.162;2023-09-30T08:56:57;97181.75;;;19.88;100.00
11198;BME280;5655;48.744;9.162;2023-09-30T08:59:23;97174.25;;;19.99;100.00
11198;BME280;5655;48.744;9.162;2023-09-30T09:01:49;97177.72;;;20.71;100.00
11198;BME280;5655;48.744;9.162;2023-09-30T09:04:14;97175.78;;;20.37;100.00
11198;BME280;5655;48.744;9.162;2023-09-30T09:06:40;97166.72;;;20.14;100.00
11198;BME280;5655;48.744;9.162;2023-09-30T09:09:16;97168.00;;;20.40;100.00
11198;BME280;5655;48.744;9.162;2023-09-30T09:11:43;97169.41;;;20.51;100.00
11198;BME280;5655;48.744;9.162;2023-09-30T09:14:09;97170.72;;;20.02;100.00
11198;BME280;5655;48.744;9.162;2023-09-30T09:16:34;97177.06;;;20.60;100.00
11198;BME280;5655;48.744;9.162;2023-09-30T09:19:12;97181.91;;;20.75;100.00
11198;BME280;5655;48.744;9.162;2023-09-30T09:21:38;97190.81;;;20.12;100.00
11198;BME280;5655;48.744;9.162;2023-09-30T09:24:03;97194.44;;;20.39;100.00
11198;BME280;5655;48.744;9.162;2023-09-30T09:26:31;97187.84;;;20.67;100.00
11198;BME280;5655;48.744;9.162;2023-09-30T09:29:04;97181.63;;;20.70;100.00
11198;BME280;5655;48.744;9.162;2023-09-30T09:31:34;97182.38;;;20.97;100.00
11198;BME280;5655;48.744;9.162;2023-09-30T09:34:02;97186.72;;;20.95;100.00
11198;BME280;5655;48.744;9.162;2023-09-30T09:39:06;97161.03;;;20.96;100.00
11198;BME280;5655;48.744;9.162;2023-09-30T09:41:32;97176.97;;;20.67;100.00
11198;BME280;5655;48.744;9.162;2023-09-30T09:43:59;97169.94;;;21.73;100.00
11198;BME280;5655;48.744;9.162;2023-09-30T09:46:26;97171.78;;;21.56;100.00
11198;BME280;5655;48.744;9.162;2023-09-30T09:48:53;97162.25;;;21.21;100.00
11198;BME280;5655;48.744;9.162;2023-09-30T09:51:20;97167.25;;;20.96;100.00
11198;BME280;5655;48.744;9.162;2023-09-30T09:53:48;97157.81;;;21.04;100.00
11198;BME280;5655;48.744;9.162;2023-09-30T09:56:15;97165.47;;;21.13;100.00
11198;BME280;5655;48.744;9.162;2023-09-30T09:58:42;97154.31;;;20.77;100.00
11198;BME280;5655;48.744;9.162;2023-09-30T10:01:10;97156.75;;;20.68;100.00
11198;BME280;5655;48.744;9.162;2023-09-30T10:03:36;97165.59;;;21.02;100.00
11198;BME280;5655;48.744;9.162;2023-09-30T10:06:03;97163.53;;;21.10;100.00
11198;BME280;5655;48.744;9.162;2023-09-30T10:08:39;97164.78;;;21.05;100.00
11198;BME280;5655;48.744;9.162;2023-09-30T10:11:05;97167.03;;;21.10;100.00
11198;BME280;5655;48.744;9.162;2023-09-30T10:13:53;97173.06;;;21.25;100.00
11198;BME280;5655;48.744;9.162;2023-09-30T10:24:57;97148.97;;;21.23;100.00
11198;BME280;5655;48.744;9.162;2023-09-30T10:35:21;97149.91;;;21.83;100.00
11198;BME280;5655;48.744;9.162;2023-09-30T10:37:47;97146.34;;;21.86;100.00
11198;BME280;5655;48.744;9.162;2023-09-30T10:40:29;97146.91;;;21.78;100.00
11198;BME280;5655;48.744;9.162;2023-09-30T10:42:56;97148.38;;;21.59;100.00
11198;BME280;5655;48.744;9.162;2023-09-30T10:45:51;97144.94;;;21.78;100.00
11198;BME280;5655;48.744;9.162;2023-09-30T10:48:32;97144.00;;;21.65;100.00
11198;BME280;5655;48.744;9.162;2023-09-30T10:51:10;97139.34;;;21.65;100.00
11198;BME280;5655;48.744;9.162;2023-09-30T10:53:44;97137.50;;;21.59;100.00
11198;BME280;5655;48.744;9.162;2023-09-30T10:56:10;97130.28;;;21.25;100.00
11198;BME280;5655;48.744;9.162;2023-09-30T10:58:39;97130.38;;;21.65;100.00
11198;BME280;5655;48.744;9.162;2023-09-30T11:01:05;97124.47;;;21.47;100.00
11198;BME280;5655;48.744;9.162;2023-09-30T11:03:30;97128.97;;;21.57;100.00
11198;BME280;5655;48.744;9.162;2023-09-30T11:05:56;97129.78;;;21.77;100.00
11198;BME280;5655;48.744;9.162;2023-09-30T11:08:21;97121.66;;;22.16;100.00
11198;BME280;5655;48.744;9.162;2023-09-30T11:10:50;97118.94;;;22.16;100.00
11198;BME280;5655;48.744;9.162;2023-09-30T11:13:17;97109.19;;;22.15;100.00
11198;BME280;5655;48.744;9.162;2023-09-30T11:15:43;97108.00;;;21.97;100.00
11198;BME280;5655;48.744;9.162;2023-09-30T11:18:16;97108.72;;;22.21;100.00
11198;BME280;5655;48.744;9.162;2023-09-30T11:20:43;97103.25;;;22.21;100.00
11198;BME280;5655;48.744;9.162;2023-09-30T11:23:13;97103.00;;;22.51;100.00
11198;BME280;5655;48.744;9.162;2023-09-30T11:25:40;97106.09;;;23.21;100.00
11198;BME280;5655;48.744;9.162;2023-09-30T11:28:16;97092.53;;;23.34;100.00
11198;BME280;5655;48.744;9.162;2023-09-30T11:30:55;97102.50;;;23.57;100.00
11198;BME280;5655;48.744;9.162;2023-09-30T11:33:20;97099.50;;;23.67;100.00
11198;BME280;5655;48.744;9.162;2023-09-30T11:36:01;97106.81;;;23.70;100.00
11198;BME280;5655;48.744;9.162;2023-09-30T11:38:28;97106.31;;;23.75;100.00
11198;BME280;5655;48.744;9.162;2023-09-30T11:41:04;97110.19;;;23.29;100.00
11198;BME280;5655;48.744;9.162;2023-09-30T11:43:34;97106.84;;;23.22;100.00
11198;BME280;5655;48.744;9.162;2023-09-30T11:46:10;97104.94;;;22.70;100.00
11198;BME280;5655;48.744;9.162;2023-09-30T11:48:37;97109.06;;;22.58;100.00
11198;BME280;5655;48.744;9.162;2023-09-30T11:51:03;97111.38;;;22.60;100.00
11198;BME280;5655;48.744;9.162;2023-09-30T11:53:32;97107.13;;;22.95;100.00
11198;BME280;5655;48.744;9.162;2023-09-30T11:56:01;97093.72;;;23.49;100.00
11198;BME280;5655;48.744;9.162;2023-09-30T11:58:37;97099.19;;;23.33;100.00
11198;BME280;5655;48.744;9.162;2023-09-30T12:01:07;97098.00;;;23.34;100.00
11198;BME280;5655;48.744;9.162;2023-09-30T12:03:36;97102.25;;;23.19;100.00
11198;BME280;5655;48.744;9.162;2023-09-30T12:06:08;97098.41;;;23.48;100.00
11198;BME280;5655;48.744;9.162;2023-09-30T12:08:33;97107.16;;;24.01;100.00
11198;BME280;5655;48.744;9.162;2023-09-30T12:10:59;97109.25;;;23.97;100.00
11198;BME280;5655;48.744;9.162;2023-09-30T12:13:25;97105.97;;;24.31;100.00
11198;BME280;5655;48.744;9.162;2023-09-30T12:15:51;97111.56;;;24.40;100.00
11198;BME280;5655;48.744;9.162;2023-09-30T12:18:18;97105.22;;;24.68;100.00
11198;BME280;5655;48.744;9.162;2023-09-30T12:20:49;97097.63;;;24.89;100.00
11198;BME280;5655;48.744;9.162;2023-09-30T12:23:15;97104.81;;;24.82;100.00
11198;BME280;5655;48.744;9.162;2023-09-30T12:25:40;97100.84;;;24.33;100.00
11198;BME280;5655;48.744;9.162;2023-09-30T12:28:06;97101.56;;;24.21;100.00
11198;BME280;5655;48.744;9.162;2023-09-30T12:30:31;97099.88;;;24.52;100.00
11198;BME280;5655;48.744;9.162;2023-09-30T12:32:57;97097.81;;;25.07;100.00
11198;BME280;5655;48.744;9.162;2023-09-30T12:35:23;97096.56;;;24.32;100.00
11198;BME280;5655;48.744;9.162;2023-09-30T12:37:48;97094.28;;;24.14;100.00
11198;BME280;5655;48.744;9.162;2023-09-30T12:40:13;97086.19;;;23.53;100.00
11198;BME280;5655;48.744;9.162;2023-09-30T12:42:42;97089.25;;;23.39;100.00
11198;BME280;5655;48.744;9.162;2023-09-30T12:45:08;97089.44;;;23.64;100.00
11198;BME280;5655;48.744;9.162;2023-09-30T12:47:34;97090.56;;;23.50;100.00
11198;BME280;5655;48.744;9.162;2023-09-30T12:49:59;97089.44;;;23.64;100.00
11198;BME280;5655;48.744;9.162;2023-09-30T12:52:24;97086.59;;;23.51;100.00
11198;BME280;5655;48.744;9.162;2023-09-30T12:54:50;97085.84;;;23.35;100.00
11198;BME280;5655;48.744;9.162;2023-09-30T12:57:16;97097.13;;;23.04;100.00
11198;BME280;5655;48.744;9.162;2023-09-30T12:59:46;97094.91;;;23.32;100.00
11198;BME280;5655;48.744;9.162;2023-09-30T13:02:12;97083.78;;;23.39;100.00
11198;BME280;5655;48.744;9.162;2023-09-30T13:04:38;97082.19;;;23.41;100.00
11198;BME280;5655;48.744;9.162;2023-09-30T13:07:11;97082.94;;;23.42;100.00
11198;BME280;5655;48.744;9.162;2023-09-30T13:09:38;97076.97;;;23.31;100.00
11198;BME280;5655;48.744;9.162;2023-09-30T13:12:04;97092.78;;;23.23;100.00
11198;BME280;5655;48.744;9.162;2023-09-30T13:14:30;97086.38;;;23.30;100.00
11198;BME280;5655;48.744;9.162;2023-09-30T13:16:55;97073.22;;;23.41;100.00
11198;BME280;5655;48.744;9.162;2023-09-30T13:19:20;97062.56;;;23.46;100.00